Ozark Regional Airport
KBPK : now visible

Airfield :











YOU CAN JOIN US ON...

 
LOGIN :

Register | Disclaimer

   EN    FR    IT 

 









Legend :    VFR   Marginal VFR   IFR   Intensive IFR   Very Intensive IFR
Visi :
Ceiling :
>= 8 km
>= 3000ft
5 to 8 km
1000 to 3000 ft
1500m to 5 km
500 to 1000 ft
800 to 1500m
200 to 500 ft
< 800m
< 200 ft
Symbols :   Thunderstorms  Fog  Heavy snow  Heavy precipitations  Wind > 20 kt






- Airport Elevation : 928 ft


KBPK - Ozark Regional

CURRENT METAR :
  • 232153Z AUTO 00000KT 10SM BKN120 31/21 A3008 RMK AO2 SLP173 T03060211

EXPIRED METARs :
  • 232053Z AUTO 00000KT 10SM OVC110 30/22 A3010 RMK AO2 SLP180 T03000217 56011
  • 231953Z AUTO 27003KT 10SM OVC100 28/22 A3010 RMK AO2 SLP184 T02830217

TAF KBPK
Valid from the 23 at 18:00 until the 24 at 18:00 UTC


231734Z 2318/2418 22005KT P6SM VCSH SCT040 BKN100
FM240100 13003KT P6SM SKC
FM241500 22005KT P6SM SCT250
KZME FIR / North America



MET'MAP, your aeronautical weather chart ! - Copyright ORBIFLY December 2007 - Disclaimer

ORBIFLY MET'MAP TEAM :

Programming & Development : Alexandra Zaïnal
Concept & original design : Baudouin d'Aumeries
Assistance for programming : Marc-Olivier Méhu
Technical & hardware support : Manuel Goepfert

Contact : metmap@orbifly.com




SOURCES & CREDITS :

   NOAA       Earth
Advisory